sensor_id;sensor_type;location;lat;lon;timestamp;temperature;humidity
20700;DHT22;10511;51.232;9.420;2023-12-07T00:01:31;2.20;99.90
20700;DHT22;10511;51.232;9.420;2023-12-07T00:03:59;2.20;99.90
20700;DHT22;10511;51.232;9.420;2023-12-07T00:06:28;2.20;99.90
20700;DHT22;10511;51.232;9.420;2023-12-07T00:08:54;2.20;99.90
20700;DHT22;10511;51.232;9.420;2023-12-07T00:11:22;2.20;99.90
20700;DHT22;10511;51.232;9.420;2023-12-07T00:13:49;2.20;99.90
20700;DHT22;10511;51.232;9.420;2023-12-07T00:16:16;2.30;99.90
20700;DHT22;10511;51.232;9.420;2023-12-07T00:18:43;2.30;99.90
20700;DHT22;10511;51.232;9.420;2023-12-07T00:21:13;2.40;99.90
20700;DHT22;10511;51.232;9.420;2023-12-07T00:23:41;2.40;99.90
20700;DHT22;10511;51.232;9.420;2023-12-07T00:26:08;2.40;99.90
20700;DHT22;10511;51.232;9.420;2023-12-07T00:28:36;2.30;99.90
20700;DHT22;10511;51.232;9.420;2023-12-07T00:31:03;2.30;99.90
20700;DHT22;10511;51.232;9.420;2023-12-07T00:33:30;2.30;99.90
20700;DHT22;10511;51.232;9.420;2023-12-07T00:35:57;2.30;99.90
20700;DHT22;10511;51.232;9.420;2023-12-07T00:38:24;2.10;99.90
20700;DHT22;10511;51.232;9.420;2023-12-07T00:40:52;2.20;99.90
20700;DHT22;10511;51.232;9.420;2023-12-07T00:43:19;2.20;99.90
20700;DHT22;10511;51.232;9.420;2023-12-07T00:45:46;2.30;99.90
20700;DHT22;10511;51.232;9.420;2023-12-07T00:48:13;2.40;99.90
20700;DHT22;10511;51.232;9.420;2023-12-07T00:50:39;2.40;99.90
20700;DHT22;10511;51.232;9.420;2023-12-07T00:53:07;2.30;99.90
20700;DHT22;10511;51.232;9.420;2023-12-07T00:55:34;2.40;99.90
20700;DHT22;10511;51.232;9.420;2023-12-07T00:58:02;2.30;99.90
20700;DHT22;10511;51.232;9.420;2023-12-07T01:00:29;2.30;99.90
20700;DHT22;10511;51.232;9.420;2023-12-07T01:02:56;2.40;99.90
20700;DHT22;10511;51.232;9.420;2023-12-07T01:05:23;2.30;99.90
20700;DHT22;10511;51.232;9.420;2023-12-07T01:07:50;2.40;99.90
20700;DHT22;10511;51.232;9.420;2023-12-07T01:10:16;2.40;99.90
20700;DHT22;10511;51.232;9.420;2023-12-07T01:12:43;2.40;99.90
20700;DHT22;10511;51.232;9.420;2023-12-07T01:15:11;2.50;99.90
20700;DHT22;10511;51.232;9.420;2023-12-07T01:17:38;2.40;99.90
20700;DHT22;10511;51.232;9.420;2023-12-07T01:20:06;2.30;99.90
20700;DHT22;10511;51.232;9.420;2023-12-07T01:22:38;2.40;99.90
20700;DHT22;10511;51.232;9.420;2023-12-07T01:25:06;2.30;99.90
20700;DHT22;10511;51.232;9.420;2023-12-07T01:27:33;2.20;99.90
20700;DHT22;10511;51.232;9.420;2023-12-07T01:29:59;2.00;99.90
20700;DHT22;10511;51.232;9.420;2023-12-07T01:32:28;1.90;99.90
20700;DHT22;10511;51.232;9.420;2023-12-07T01:34:54;1.90;99.90
20700;DHT22;10511;51.232;9.420;2023-12-07T01:37:21;1.90;99.90
20700;DHT22;10511;51.232;9.420;2023-12-07T01:39:49;2.00;99.90
20700;DHT22;10511;51.232;9.420;2023-12-07T01:42:16;2.00;99.90
20700;DHT22;10511;51.232;9.420;2023-12-07T01:44:43;2.00;99.90
20700;DHT22;10511;51.232;9.420;2023-12-07T01:47:10;1.80;99.90
20700;DHT22;10511;51.232;9.420;2023-12-07T01:49:39;1.70;99.90
20700;DHT22;10511;51.232;9.420;2023-12-07T01:52:06;1.60;99.90
20700;DHT22;10511;51.232;9.420;2023-12-07T01:54:34;1.60;99.90
20700;DHT22;10511;51.232;9.420;2023-12-07T01:57:01;1.60;99.90
20700;DHT22;10511;51.232;9.420;2023-12-07T01:59:28;1.50;99.90
20700;DHT22;10511;51.232;9.420;2023-12-07T02:01:55;1.50;99.90
20700;DHT22;10511;51.232;9.420;2023-12-07T02:04:22;1.50;99.90
20700;DHT22;10511;51.232;9.420;2023-12-07T02:06:52;1.50;99.90
20700;DHT22;10511;51.232;9.420;2023-12-07T02:09:20;1.60;99.90
20700;DHT22;10511;51.232;9.420;2023-12-07T02:11:48;1.60;99.90
20700;DHT22;10511;51.232;9.420;2023-12-07T02:14:14;1.70;99.90
20700;DHT22;10511;51.232;9.420;2023-12-07T02:16:46;1.80;99.90
20700;DHT22;10511;51.232;9.420;2023-12-07T02:19:31;1.90;99.90
20700;DHT22;10511;51.232;9.420;2023-12-07T02:22:12;1.90;99.90
20700;DHT22;10511;51.232;9.420;2023-12-07T02:24:47;1.90;99.90
20700;DHT22;10511;51.232;9.420;2023-12-07T02:27:16;2.00;99.90
20700;DHT22;10511;51.232;9.420;2023-12-07T02:29:42;2.10;99.90
20700;DHT22;10511;51.232;9.420;2023-12-07T02:32:09;2.10;99.90
20700;DHT22;10511;51.232;9.420;2023-12-07T02:34:36;2.20;99.90
20700;DHT22;10511;51.232;9.420;2023-12-07T02:37:03;2.10;99.90
20700;DHT22;10511;51.232;9.420;2023-12-07T02:39:31;2.20;99.90
20700;DHT22;10511;51.232;9.420;2023-12-07T02:41:59;2.20;99.90
20700;DHT22;10511;51.232;9.420;2023-12-07T02:44:28;2.20;99.90
20700;DHT22;10511;51.232;9.420;2023-12-07T02:46:55;2.40;99.90
20700;DHT22;10511;51.232;9.420;2023-12-07T02:49:22;2.40;99.90
20700;DHT22;10511;51.232;9.420;2023-12-07T02:51:49;2.40;99.90
20700;DHT22;10511;51.232;9.420;2023-12-07T02:54:16;2.40;99.90
20700;DHT22;10511;51.232;9.420;2023-12-07T02:56:42;2.30;99.90
20700;DHT22;10511;51.232;9.420;2023-12-07T02:59:09;2.40;99.90
20700;DHT22;10511;51.232;9.420;2023-12-07T03:01:37;2.50;99.90
20700;DHT22;10511;51.232;9.420;2023-12-07T03:04:04;2.40;99.90
20700;DHT22;10511;51.232;9.420;2023-12-07T03:06:31;2.30;99.90
20700;DHT22;10511;51.232;9.420;2023-12-07T03:08:58;2.10;99.90
20700;DHT22;10511;51.232;9.420;2023-12-07T03:11:25;2.00;99.90
20700;DHT22;10511;51.232;9.420;2023-12-07T03:13:51;1.90;99.90
20700;DHT22;10511;51.232;9.420;2023-12-07T03:16:18;1.70;99.90
20700;DHT22;10511;51.232;9.420;2023-12-07T03:18:47;1.60;99.90
20700;DHT22;10511;51.232;9.420;2023-12-07T03:21:14;1.60;99.90
20700;DHT22;10511;51.232;9.420;2023-12-07T03:23:40;1.60;99.90
20700;DHT22;10511;51.232;9.420;2023-12-07T03:26:07;1.60;99.90
20700;DHT22;10511;51.232;9.420;2023-12-07T03:28:34;1.50;99.90
20700;DHT22;10511;51.232;9.420;2023-12-07T03:31:01;1.50;99.90
20700;DHT22;10511;51.232;9.420;2023-12-07T03:33:28;1.50;99.90
20700;DHT22;10511;51.232;9.420;2023-12-07T03:35:56;1.50;99.90
20700;DHT22;10511;51.232;9.420;2023-12-07T03:38:23;1.50;99.90
20700;DHT22;10511;51.232;9.420;2023-12-07T03:40:50;1.60;99.90
20700;DHT22;10511;51.232;9.420;2023-12-07T03:43:19;1.60;99.90
20700;DHT22;10511;51.232;9.420;2023-12-07T03:45:45;1.70;99.90
20700;DHT22;10511;51.232;9.420;2023-12-07T03:48:12;1.70;99.90
20700;DHT22;10511;51.232;9.420;2023-12-07T03:50:39;1.60;99.90
20700;DHT22;10511;51.232;9.420;2023-12-07T03:53:07;1.60;99.90
20700;DHT22;10511;51.232;9.420;2023-12-07T03:55:35;1.50;99.90
20700;DHT22;10511;51.232;9.420;2023-12-07T03:58:02;1.60;99.90
20700;DHT22;10511;51.232;9.420;2023-12-07T04:00:30;1.50;99.90
20700;DHT22;10511;51.232;9.420;2023-12-07T04:02:57;1.50;99.90
20700;DHT22;10511;51.232;9.420;2023-12-07T04:05:24;1.60;99.90
20700;DHT22;10511;51.232;9.420;2023-12-07T04:07:51;1.70;99.90
20700;DHT22;10511;51.232;9.420;2023-12-07T04:10:21;1.70;99.90
20700;DHT22;10511;51.232;9.420;2023-12-07T04:12:48;1.80;99.90
20700;DHT22;10511;51.232;9.420;2023-12-07T04:15:15;1.90;99.90
20700;DHT22;10511;51.232;9.420;2023-12-07T04:17:42;1.90;99.90
20700;DHT22;10511;51.232;9.420;2023-12-07T04:20:10;2.00;99.90
20700;DHT22;10511;51.232;9.420;2023-12-07T04:22:37;2.00;99.90
20700;DHT22;10511;51.232;9.420;2023-12-07T04:25:04;2.00;99.90
20700;DHT22;10511;51.232;9.420;2023-12-07T04:27:33;2.00;99.90
20700;DHT22;10511;51.232;9.420;2023-12-07T04:30:00;2.10;99.90
20700;DHT22;10511;51.232;9.420;2023-12-07T04:32:27;2.20;99.90
20700;DHT22;10511;51.232;9.420;2023-12-07T04:34:54;2.20;99.90
20700;DHT22;10511;51.232;9.420;2023-12-07T04:37:20;2.30;99.90
20700;DHT22;10511;51.232;9.420;2023-12-07T04:39:47;2.20;99.90
20700;DHT22;10511;51.232;9.420;2023-12-07T04:42:14;2.30;99.90
20700;DHT22;10511;51.232;9.420;2023-12-07T04:44:42;2.20;99.90
20700;DHT22;10511;51.232;9.420;2023-12-07T04:47:09;2.20;99.90
20700;DHT22;10511;51.232;9.420;2023-12-07T04:49:37;2.20;99.90
20700;DHT22;10511;51.232;9.420;2023-12-07T04:52:04;2.20;99.90
20700;DHT22;10511;51.232;9.420;2023-12-07T04:54:31;2.20;99.90
20700;DHT22;10511;51.232;9.420;2023-12-07T04:56:58;2.10;99.90
20700;DHT22;10511;51.232;9.420;2023-12-07T04:59:25;2.00;99.90
20700;DHT22;10511;51.232;9.420;2023-12-07T05:01:53;1.80;99.90
20700;DHT22;10511;51.232;9.420;2023-12-07T05:04:20;1.70;99.90
20700;DHT22;10511;51.232;9.420;2023-12-07T05:06:47;1.60;99.90
20700;DHT22;10511;51.232;9.420;2023-12-07T05:09:14;1.80;99.90
20700;DHT22;10511;51.232;9.420;2023-12-07T05:11:41;1.90;99.90
20700;DHT22;10511;51.232;9.420;2023-12-07T05:14:08;1.80;99.90
20700;DHT22;10511;51.232;9.420;2023-12-07T05:16:35;1.70;99.90
20700;DHT22;10511;51.232;9.420;2023-12-07T05:19:03;1.70;99.90
20700;DHT22;10511;51.232;9.420;2023-12-07T05:21:31;1.70;99.90
20700;DHT22;10511;51.232;9.420;2023-12-07T05:23:58;1.70;99.90
20700;DHT22;10511;51.232;9.420;2023-12-07T05:26:25;1.70;99.90
20700;DHT22;10511;51.232;9.420;2023-12-07T05:28:52;1.70;99.90
20700;DHT22;10511;51.232;9.420;2023-12-07T05:31:19;1.90;99.90
20700;DHT22;10511;51.232;9.420;2023-12-07T05:33:46;1.80;99.90
20700;DHT22;10511;51.232;9.420;2023-12-07T05:36:15;1.70;99.90
20700;DHT22;10511;51.232;9.420;2023-12-07T05:38:42;1.80;99.90
20700;DHT22;10511;51.232;9.420;2023-12-07T05:41:08;1.90;99.90
20700;DHT22;10511;51.232;9.420;2023-12-07T05:43:40;2.00;99.90
20700;DHT22;10511;51.232;9.420;2023-12-07T05:46:07;2.00;99.90
20700;DHT22;10511;51.232;9.420;2023-12-07T05:48:34;2.00;99.90
20700;DHT22;10511;51.232;9.420;2023-12-07T05:51:01;2.10;99.90
20700;DHT22;10511;51.232;9.420;2023-12-07T05:53:30;2.10;99.90
20700;DHT22;10511;51.232;9.420;2023-12-07T05:55:58;2.00;99.90
20700;DHT22;10511;51.232;9.420;2023-12-07T05:58:24;1.90;99.90
20700;DHT22;10511;51.232;9.420;2023-12-07T06:00:51;1.80;99.90
20700;DHT22;10511;51.232;9.420;2023-12-07T06:03:18;1.80;99.90
20700;DHT22;10511;51.232;9.420;2023-12-07T06:05:45;1.90;99.90
20700;DHT22;10511;51.232;9.420;2023-12-07T06:08:12;1.90;99.90
20700;DHT22;10511;51.232;9.420;2023-12-07T06:10:40;2.00;99.90
20700;DHT22;10511;51.232;9.420;2023-12-07T06:13:07;2.00;99.90
20700;DHT22;10511;51.232;9.420;2023-12-07T06:15:34;2.00;99.90
20700;DHT22;10511;51.232;9.420;2023-12-07T06:18:01;2.10;99.90
20700;DHT22;10511;51.232;9.420;2023-12-07T06:20:28;2.20;99.90
20700;DHT22;10511;51.232;9.420;2023-12-07T06:22:55;2.20;99.90
20700;DHT22;10511;51.232;9.420;2023-12-07T06:25:23;2.10;99.90
20700;DHT22;10511;51.232;9.420;2023-12-07T06:27:51;1.90;99.90
20700;DHT22;10511;51.232;9.420;2023-12-07T06:30:18;1.80;99.90
20700;DHT22;10511;51.232;9.420;2023-12-07T06:32:46;1.80;99.90
20700;DHT22;10511;51.232;9.420;2023-12-07T06:35:13;1.90;99.90
20700;DHT22;10511;51.232;9.420;2023-12-07T06:37:40;1.90;99.90
20700;DHT22;10511;51.232;9.420;2023-12-07T06:40:09;1.90;99.90
20700;DHT22;10511;51.232;9.420;2023-12-07T06:42:36;1.70;99.90
20700;DHT22;10511;51.232;9.420;2023-12-07T06:45:06;1.60;99.90
20700;DHT22;10511;51.232;9.420;2023-12-07T06:47:36;1.70;99.90
20700;DHT22;10511;51.232;9.420;2023-12-07T06:50:05;1.70;99.90
20700;DHT22;10511;51.232;9.420;2023-12-07T06:52:33;1.80;99.90
20700;DHT22;10511;51.232;9.420;2023-12-07T06:55:01;1.80;99.90
20700;DHT22;10511;51.232;9.420;2023-12-07T06:57:27;1.80;99.90
20700;DHT22;10511;51.232;9.420;2023-12-07T06:59:55;1.70;99.90
20700;DHT22;10511;51.232;9.420;2023-12-07T07:02:24;1.60;99.90
20700;DHT22;10511;51.232;9.420;2023-12-07T07:04:51;1.60;99.90
20700;DHT22;10511;51.232;9.420;2023-12-07T07:07:18;1.70;99.90
20700;DHT22;10511;51.232;9.420;2023-12-07T07:09:45;1.80;99.90
20700;DHT22;10511;51.232;9.420;2023-12-07T07:12:12;1.80;99.90
20700;DHT22;10511;51.232;9.420;2023-12-07T07:14:39;1.90;99.90
20700;DHT22;10511;51.232;9.420;2023-12-07T07:17:06;1.90;99.90
20700;DHT22;10511;51.232;9.420;2023-12-07T07:19:34;1.90;99.90
20700;DHT22;10511;51.232;9.420;2023-12-07T07:22:01;2.00;99.90
20700;DHT22;10511;51.232;9.420;2023-12-07T07:24:28;2.00;99.90
20700;DHT22;10511;51.232;9.420;2023-12-07T07:26:55;2.00;99.90
20700;DHT22;10511;51.232;9.420;2023-12-07T07:29:22;1.90;99.90
20700;DHT22;10511;51.232;9.420;2023-12-07T07:31:48;1.80;99.90
20700;DHT22;10511;51.232;9.420;2023-12-07T07:34:15;1.90;99.90
20700;DHT22;10511;51.232;9.420;2023-12-07T07:36:43;1.90;99.90
20700;DHT22;10511;51.232;9.420;2023-12-07T07:39:10;1.80;99.90
20700;DHT22;10511;51.232;9.420;2023-12-07T07:41:39;1.90;99.90
20700;DHT22;10511;51.232;9.420;2023-12-07T07:44:06;1.80;99.90
20700;DHT22;10511;51.232;9.420;2023-12-07T07:46:32;1.80;99.90
20700;DHT22;10511;51.232;9.420;2023-12-07T07:49:00;1.80;99.90
20700;DHT22;10511;51.232;9.420;2023-12-07T07:51:29;1.90;99.90
20700;DHT22;10511;51.232;9.420;2023-12-07T07:53:59;2.10;99.90
20700;DHT22;10511;51.232;9.420;2023-12-07T07:56:26;2.20;99.90
20700;DHT22;10511;51.232;9.420;2023-12-07T07:58:53;2.20;99.90
20700;DHT22;10511;51.232;9.420;2023-12-07T08:01:19;2.20;99.90
20700;DHT22;10511;51.232;9.420;2023-12-07T08:03:47;2.20;99.90
20700;DHT22;10511;51.232;9.420;2023-12-07T08:06:15;2.10;99.90
20700;DHT22;10511;51.232;9.420;2023-12-07T08:08:42;2.20;99.90
20700;DHT22;10511;51.232;9.420;2023-12-07T08:11:10;2.20;99.90
20700;DHT22;10511;51.232;9.420;2023-12-07T08:13:38;2.30;99.90
20700;DHT22;10511;51.232;9.420;2023-12-07T08:16:07;2.30;99.90
20700;DHT22;10511;51.232;9.420;2023-12-07T08:18:34;2.30;99.90
20700;DHT22;10511;51.232;9.420;2023-12-07T08:21:01;2.30;99.90
20700;DHT22;10511;51.232;9.420;2023-12-07T08:23:29;2.30;99.90
20700;DHT22;10511;51.232;9.420;2023-12-07T08:25:55;2.30;99.90
20700;DHT22;10511;51.232;9.420;2023-12-07T08:28:24;2.30;99.90
20700;DHT22;10511;51.232;9.420;2023-12-07T08:30:51;2.20;99.90
20700;DHT22;10511;51.232;9.420;2023-12-07T08:33:18;2.20;99.90
20700;DHT22;10511;51.232;9.420;2023-12-07T08:35:44;2.10;99.90
20700;DHT22;10511;51.232;9.420;2023-12-07T08:38:12;2.10;99.90
20700;DHT22;10511;51.232;9.420;2023-12-07T08:40:39;2.00;99.90
20700;DHT22;10511;51.232;9.420;2023-12-07T08:43:07;2.00;99.90
20700;DHT22;10511;51.232;9.420;2023-12-07T08:45:35;2.00;99.90
20700;DHT22;10511;51.232;9.420;2023-12-07T08:48:04;2.00;99.90
20700;DHT22;10511;51.232;9.420;2023-12-07T08:50:31;2.00;99.90
20700;DHT22;10511;51.232;9.420;2023-12-07T08:52:58;2.00;99.90
20700;DHT22;10511;51.232;9.420;2023-12-07T08:55:25;2.00;99.90
20700;DHT22;10511;51.232;9.420;2023-12-07T08:57:53;2.00;99.90
20700;DHT22;10511;51.232;9.420;2023-12-07T09:00:20;2.10;99.90
20700;DHT22;10511;51.232;9.420;2023-12-07T09:02:51;2.00;99.90
20700;DHT22;10511;51.232;9.420;2023-12-07T09:05:18;2.00;99.90
20700;DHT22;10511;51.232;9.420;2023-12-07T09:07:45;2.00;99.90
20700;DHT22;10511;51.232;9.420;2023-12-07T09:10:12;2.10;99.90
20700;DHT22;10511;51.232;9.420;2023-12-07T09:12:39;2.10;99.90
20700;DHT22;10511;51.232;9.420;2023-12-07T09:15:07;2.10;99.90
20700;DHT22;10511;51.232;9.420;2023-12-07T09:17:35;2.00;99.90
20700;DHT22;10511;51.232;9.420;2023-12-07T09:20:06;2.10;99.90
20700;DHT22;10511;51.232;9.420;2023-12-07T09:22:37;2.10;99.90
20700;DHT22;10511;51.232;9.420;2023-12-07T09:25:05;2.20;99.90
20700;DHT22;10511;51.232;9.420;2023-12-07T09:27:33;2.20;99.90
20700;DHT22;10511;51.232;9.420;2023-12-07T09:30:00;2.20;99.90
20700;DHT22;10511;51.232;9.420;2023-12-07T09:32:28;2.20;99.90
20700;DHT22;10511;51.232;9.420;2023-12-07T09:34:55;2.20;99.90
20700;DHT22;10511;51.232;9.420;2023-12-07T09:37:23;2.20;99.90
20700;DHT22;10511;51.232;9.420;2023-12-07T09:39:50;2.20;99.90
20700;DHT22;10511;51.232;9.420;2023-12-07T09:42:17;2.30;99.90
20700;DHT22;10511;51.232;9.420;2023-12-07T09:44:44;2.40;99.90
20700;DHT22;10511;51.232;9.420;2023-12-07T09:47:11;2.50;99.90
20700;DHT22;10511;51.232;9.420;2023-12-07T09:49:37;2.60;99.90
20700;DHT22;10511;51.232;9.420;2023-12-07T09:52:06;2.60;99.90
20700;DHT22;10511;51.232;9.420;2023-12-07T09:54:36;2.60;99.90
20700;DHT22;10511;51.232;9.420;2023-12-07T09:57:06;2.60;99.90
20700;DHT22;10511;51.232;9.420;2023-12-07T09:59:35;2.80;99.90
20700;DHT22;10511;51.232;9.420;2023-12-07T10:02:02;3.00;99.90
20700;DHT22;10511;51.232;9.420;2023-12-07T10:04:29;3.00;99.90
20700;DHT22;10511;51.232;9.420;2023-12-07T10:06:56;3.10;99.90
20700;DHT22;10511;51.232;9.420;2023-12-07T10:09:23;3.20;99.90
20700;DHT22;10511;51.232;9.420;2023-12-07T10:12:02;3.20;99.90
20700;DHT22;10511;51.232;9.420;2023-12-07T10:14:28;3.40;99.90
20700;DHT22;10511;51.232;9.420;2023-12-07T10:16:55;3.40;99.90
20700;DHT22;10511;51.232;9.420;2023-12-07T10:19:23;3.40;99.90
20700;DHT22;10511;51.232;9.420;2023-12-07T10:21:51;3.40;99.90
20700;DHT22;10511;51.232;9.420;2023-12-07T10:24:20;3.50;99.90
20700;DHT22;10511;51.232;9.420;2023-12-07T10:26:48;3.50;99.90
20700;DHT22;10511;51.232;9.420;2023-12-07T10:29:17;3.60;99.90
20700;DHT22;10511;51.232;9.420;2023-12-07T10:31:44;3.60;99.90
20700;DHT22;10511;51.232;9.420;2023-12-07T10:34:12;3.50;99.90
20700;DHT22;10511;51.232;9.420;2023-12-07T10:36:39;3.50;99.90
20700;DHT22;10511;51.232;9.420;2023-12-07T10:39:06;3.50;99.90
20700;DHT22;10511;51.232;9.420;2023-12-07T10:41:34;3.50;99.90
20700;DHT22;10511;51.232;9.420;2023-12-07T10:44:06;3.60;99.90
20700;DHT22;10511;51.232;9.420;2023-12-07T10:46:34;3.50;99.90
20700;DHT22;10511;51.232;9.420;2023-12-07T10:49:04;3.40;99.90
20700;DHT22;10511;51.232;9.420;2023-12-07T10:51:41;3.40;99.90
20700;DHT22;10511;51.232;9.420;2023-12-07T10:54:10;3.40;99.90
20700;DHT22;10511;51.232;9.420;2023-12-07T10:56:43;3.50;99.90
20700;DHT22;10511;51.232;9.420;2023-12-07T10:59:11;3.50;99.90
20700;DHT22;10511;51.232;9.420;2023-12-07T11:01:40;3.40;99.90
20700;DHT22;10511;51.232;9.420;2023-12-07T11:04:12;3.40;99.90
20700;DHT22;10511;51.232;9.420;2023-12-07T11:06:39;3.30;99.90
20700;DHT22;10511;51.232;9.420;2023-12-07T11:09:08;3.30;99.90
20700;DHT22;10511;51.232;9.420;2023-12-07T11:11:41;3.30;99.90
20700;DHT22;10511;51.232;9.420;2023-12-07T11:14:10;3.30;99.90
20700;DHT22;10511;51.232;9.420;2023-12-07T11:16:42;3.40;99.90
20700;DHT22;10511;51.232;9.420;2023-12-07T11:19:43;3.50;99.90
20700;DHT22;10511;51.232;9.420;2023-12-07T11:22:11;3.50;99.90
20700;DHT22;10511;51.232;9.420;2023-12-07T11:24:52;3.60;99.90
20700;DHT22;10511;51.232;9.420;2023-12-07T11:27:19;3.80;99.90
20700;DHT22;10511;51.232;9.420;2023-12-07T11:29:46;3.70;99.90
20700;DHT22;10511;51.232;9.420;2023-12-07T11:32:15;3.50;99.90
20700;DHT22;10511;51.232;9.420;2023-12-07T11:34:42;3.50;99.90
20700;DHT22;10511;51.232;9.420;2023-12-07T11:37:10;3.40;99.90
20700;DHT22;10511;51.232;9.420;2023-12-07T11:39:39;3.50;99.90
20700;DHT22;10511;51.232;9.420;2023-12-07T11:42:09;3.60;99.90
20700;DHT22;10511;51.232;9.420;2023-12-07T11:44:37;3.50;99.90
20700;DHT22;10511;51.232;9.420;2023-12-07T11:47:05;3.40;99.90
20700;DHT22;10511;51.232;9.420;2023-12-07T11:49:33;3.40;99.90
20700;DHT22;10511;51.232;9.420;2023-12-07T11:52:00;3.20;99.90
20700;DHT22;10511;51.232;9.420;2023-12-07T11:54:27;3.00;99.90
20700;DHT22;10511;51.232;9.420;2023-12-07T11:56:54;2.80;99.90
20700;DHT22;10511;51.232;9.420;2023-12-07T11:59:21;2.60;99.90
20700;DHT22;10511;51.232;9.420;2023-12-07T12:01:51;2.50;99.90
20700;DHT22;10511;51.232;9.420;2023-12-07T12:04:19;2.40;99.90
20700;DHT22;10511;51.232;9.420;2023-12-07T12:06:49;2.40;99.90
20700;DHT22;10511;51.232;9.420;2023-12-07T12:09:16;2.40;99.90
20700;DHT22;10511;51.232;9.420;2023-12-07T12:11:44;2.30;99.90
20700;DHT22;10511;51.232;9.420;2023-12-07T12:14:14;2.30;99.90
20700;DHT22;10511;51.232;9.420;2023-12-07T12:16:41;2.20;99.90
20700;DHT22;10511;51.232;9.420;2023-12-07T12:19:08;2.20;99.90
20700;DHT22;10511;51.232;9.420;2023-12-07T12:21:35;2.10;99.90
20700;DHT22;10511;51.232;9.420;2023-12-07T12:24:06;2.10;99.90
20700;DHT22;10511;51.232;9.420;2023-12-07T12:26:34;2.10;99.90
20700;DHT22;10511;51.232;9.420;2023-12-07T12:29:01;2.10;99.90
20700;DHT22;10511;51.232;9.420;2023-12-07T12:31:28;2.20;99.90
20700;DHT22;10511;51.232;9.420;2023-12-07T12:33:55;2.30;99.90
20700;DHT22;10511;51.232;9.420;2023-12-07T12:36:22;2.40;99.90
20700;DHT22;10511;51.232;9.420;2023-12-07T12:38:53;2.50;99.90
20700;DHT22;10511;51.232;9.420;2023-12-07T12:41:22;2.50;99.90
20700;DHT22;10511;51.232;9.420;2023-12-07T12:43:50;2.70;99.90
20700;DHT22;10511;51.232;9.420;2023-12-07T12:46:18;2.80;99.90
20700;DHT22;10511;51.232;9.420;2023-12-07T12:48:55;2.90;99.90
20700;DHT22;10511;51.232;9.420;2023-12-07T12:51:24;2.90;99.90
20700;DHT22;10511;51.232;9.420;2023-12-07T12:53:52;3.00;99.90
20700;DHT22;10511;51.232;9.420;2023-12-07T12:56:21;3.10;99.90
20700;DHT22;10511;51.232;9.420;2023-12-07T12:58:49;3.10;99.90
20700;DHT22;10511;51.232;9.420;2023-12-07T13:01:16;3.10;99.90
20700;DHT22;10511;51.232;9.420;2023-12-07T13:03:45;3.00;99.90
20700;DHT22;10511;51.232;9.420;2023-12-07T13:06:13;3.10;99.90
20700;DHT22;10511;51.232;9.420;2023-12-07T13:08:43;3.10;99.90
20700;DHT22;10511;51.232;9.420;2023-12-07T13:11:15;2.90;99.90
20700;DHT22;10511;51.232;9.420;2023-12-07T13:13:43;3.00;99.90
20700;DHT22;10511;51.232;9.420;2023-12-07T13:16:10;2.90;99.90
20700;DHT22;10511;51.232;9.420;2023-12-07T13:18:38;2.80;99.90
20700;DHT22;10511;51.232;9.420;2023-12-07T13:21:05;2.90;99.90
20700;DHT22;10511;51.232;9.420;2023-12-07T13:23:32;2.90;99.90
20700;DHT22;10511;51.232;9.420;2023-12-07T13:25:59;2.90;99.90
20700;DHT22;10511;51.232;9.420;2023-12-07T13:28:26;3.00;99.90
20700;DHT22;10511;51.232;9.420;2023-12-07T13:30:54;3.10;99.90
20700;DHT22;10511;51.232;9.420;2023-12-07T13:33:21;3.10;99.90
20700;DHT22;10511;51.232;9.420;2023-12-07T13:35:48;3.20;99.90
20700;DHT22;10511;51.232;9.420;2023-12-07T13:38:15;3.20;99.90
20700;DHT22;10511;51.232;9.420;2023-12-07T13:40:45;3.20;99.90
20700;DHT22;10511;51.232;9.420;2023-12-07T13:43:12;3.20;99.90
20700;DHT22;10511;51.232;9.420;2023-12-07T13:45:39;3.30;99.90
20700;DHT22;10511;51.232;9.420;2023-12-07T13:48:07;3.30;99.90
20700;DHT22;10511;51.232;9.420;2023-12-07T13:50:34;3.20;99.90
20700;DHT22;10511;51.232;9.420;2023-12-07T13:53:02;3.20;99.90
20700;DHT22;10511;51.232;9.420;2023-12-07T13:55:28;3.10;99.90
20700;DHT22;10511;51.232;9.420;2023-12-07T13:57:55;3.10;99.90
20700;DHT22;10511;51.232;9.420;2023-12-07T14:00:23;3.10;99.90
20700;DHT22;10511;51.232;9.420;2023-12-07T14:02:49;3.20;99.90
20700;DHT22;10511;51.232;9.420;2023-12-07T14:05:18;3.20;99.90
20700;DHT22;10511;51.232;9.420;2023-12-07T14:07:44;3.20;99.90
20700;DHT22;10511;51.232;9.420;2023-12-07T14:10:12;3.10;99.90
20700;DHT22;10511;51.232;9.420;2023-12-07T14:12:39;3.20;99.90
20700;DHT22;10511;51.232;9.420;2023-12-07T14:15:06;3.20;99.90
20700;DHT22;10511;51.232;9.420;2023-12-07T14:17:35;3.30;99.90
20700;DHT22;10511;51.232;9.420;2023-12-07T14:20:03;3.20;99.90
20700;DHT22;10511;51.232;9.420;2023-12-07T14:22:33;3.20;99.90
20700;DHT22;10511;51.232;9.420;2023-12-07T14:25:00;3.20;99.90
20700;DHT22;10511;51.232;9.420;2023-12-07T14:27:27;3.30;99.90
20700;DHT22;10511;51.232;9.420;2023-12-07T14:29:54;3.40;99.90
20700;DHT22;10511;51.232;9.420;2023-12-07T14:32:21;3.40;99.90
20700;DHT22;10511;51.232;9.420;2023-12-07T14:34:48;3.20;99.90
20700;DHT22;10511;51.232;9.420;2023-12-07T14:37:15;3.30;99.90
20700;DHT22;10511;51.232;9.420;2023-12-07T14:39:43;3.30;99.90
20700;DHT22;10511;51.232;9.420;2023-12-07T14:42:10;3.20;99.90
20700;DHT22;10511;51.232;9.420;2023-12-07T14:44:37;3.00;99.90
20700;DHT22;10511;51.232;9.420;2023-12-07T14:47:04;2.90;99.90
20700;DHT22;10511;51.232;9.420;2023-12-07T14:49:31;2.80;99.90
20700;DHT22;10511;51.232;9.420;2023-12-07T14:51:58;2.70;99.90
20700;DHT22;10511;51.232;9.420;2023-12-07T14:54:26;2.70;99.90
20700;DHT22;10511;51.232;9.420;2023-12-07T14:56:54;2.70;99.90
20700;DHT22;10511;51.232;9.420;2023-12-07T14:59:23;2.70;99.90
20700;DHT22;10511;51.232;9.420;2023-12-07T15:01:50;2.60;99.90
20700;DHT22;10511;51.232;9.420;2023-12-07T15:04:17;2.60;99.90
20700;DHT22;10511;51.232;9.420;2023-12-07T15:06:44;2.40;99.90
20700;DHT22;10511;51.232;9.420;2023-12-07T15:09:12;2.30;99.90
20700;DHT22;10511;51.232;9.420;2023-12-07T15:11:39;2.30;99.90
20700;DHT22;10511;51.232;9.420;2023-12-07T15:14:07;2.20;99.90
20700;DHT22;10511;51.232;9.420;2023-12-07T15:16:35;2.10;99.90
20700;DHT22;10511;51.232;9.420;2023-12-07T15:19:03;2.00;99.90
20700;DHT22;10511;51.232;9.420;2023-12-07T15:21:30;2.00;99.90
20700;DHT22;10511;51.232;9.420;2023-12-07T15:23:58;1.90;99.90
20700;DHT22;10511;51.232;9.420;2023-12-07T15:26:25;1.80;99.90
20700;DHT22;10511;51.232;9.420;2023-12-07T15:28:52;1.80;99.90
20700;DHT22;10511;51.232;9.420;2023-12-07T15:31:20;1.80;99.90
20700;DHT22;10511;51.232;9.420;2023-12-07T15:33:47;1.70;99.90
20700;DHT22;10511;51.232;9.420;2023-12-07T15:36:14;1.70;99.90
20700;DHT22;10511;51.232;9.420;2023-12-07T15:38:40;1.70;99.90
20700;DHT22;10511;51.232;9.420;2023-12-07T15:41:08;1.70;99.90
20700;DHT22;10511;51.232;9.420;2023-12-07T15:43:35;1.60;99.90
20700;DHT22;10511;51.232;9.420;2023-12-07T15:46:01;1.60;99.90
20700;DHT22;10511;51.232;9.420;2023-12-07T15:48:30;1.60;99.90